Crianlarich, United Kingdom
Current Conditions -  °F | °C
As of 6:20 AM on Wednesday 22 Oct 2014 (Local Time) from EGPF Reporting Station
Broken Clouds Broken Clouds  
Wind Chill: 46°   Ceiling: 4600
Heat Index: 48°   Visibility: 6mi
Dew Point: 43°   Wind: 6mph
Humidity: 82%   Direction: 210°SSW
Pressure: 30.09"   Gusts: NA
Location:  56.39°N, 4.62°W
Report Text: EGPF 220520Z AUTO 21005KT 9999 BKN046 09/06 Q1019
Loading
Personal Weather Stations






























Interactive Weather Map
Tropical Storm Tracking
New forecast layout! Learn more

10-Day Weather Forecast

Advertisements
Track Severe Weather on mobile